Station History

Weather Underground - logo

Station Historical Data
Daily Summary for December 25, 2017 Units:  English    Metric   Both
« Previous Day
Next Day »
Daily Weekly Monthly Yearly Custom
  High: Low: Average:
Temperature: 57.6 °F 34.9 °F 45.3 °F
Dew Point: 43.0 °F 33.1 °F 39 °F
Humidity: 94 % 54 % 80 %
Wind Speed: 3.5 mph 0.0 mph 0.4 mph
Wind Gust: 3.5 mph - -
Wind:- - South
Pressure: 30.29 in 30.16 in -
Precipitation: 0.00 in    
Historical Graphs
 
 
Tabular Data for December 25, 2017
Time Temperature Dew Point Pressure Wind Wind Speed Wind Gust Humidity Rainfall Rate (Hourly)
00:03 41.8 °F 37.9 °F 30.21 in Calm     86 % 0.00 in
00:05 41.7 °F 38.1 °F 30.21 in Calm     87 % 0.00 in
00:07 41.6 °F 38.0 °F 30.21 in Calm     87 % 0.00 in
00:12 41.5 °F 37.9 °F 30.21 in Calm     87 % 0.00 in
00:13 41.4 °F 37.8 °F 30.21 in Calm     87 % 0.00 in
00:18 41.3 °F 38.0 °F 30.21 in NNE 1.0 mph   88 % 0.00 in
00:23 41.3 °F 37.7 °F 30.21 in NNE 1.2 mph   87 % 0.00 in
00:26 41.2 °F 37.6 °F 30.21 in Calm     87 % 0.00 in
00:29 41.2 °F 37.6 °F 30.21 in Calm     87 % 0.00 in
00:35 41.3 °F 38.0 °F 30.21 in Calm     88 % 0.00 in
00:39 41.3 °F 37.7 °F 30.22 in Calm     87 % 0.00 in
00:43 41.4 °F 37.8 °F 30.22 in Calm     87 % 0.00 in
00:45 41.4 °F 38.1 °F 30.22 in Calm     88 % 0.00 in
00:49 41.4 °F 37.8 °F 30.22 in Calm     87 % 0.00 in
00:55 41.3 °F 37.7 °F 30.22 in Calm     87 % 0.00 in
01:00 41.3 °F 37.7 °F 30.22 in Calm     87 % 0.00 in
01:05 41.2 °F 37.6 °F 30.22 in Calm     87 % 0.00 in
01:10 41.1 °F 37.5 °F 30.22 in Calm     87 % 0.00 in
01:11 41.0 °F 37.4 °F 30.21 in Calm     87 % 0.00 in
01:12 41.0 °F 37.4 °F 30.21 in Calm     87 % 0.00 in
01:16 40.9 °F 37.6 °F 30.21 in Calm     88 % 0.00 in
01:21 41.0 °F 37.7 °F 30.21 in Calm     88 % 0.00 in
01:22 41.0 °F 37.7 °F 30.21 in Calm     88 % 0.00 in
01:27 41.1 °F 37.8 °F 30.21 in Calm   0.1 mph 88 % 0.00 in
01:32 41.4 °F 38.1 °F 30.21 in Calm     88 % 0.00 in
01:35 41.5 °F 38.2 °F 30.21 in Calm     88 % 0.00 in
01:40 41.4 °F 37.8 °F 30.22 in Calm     87 % 0.00 in
01:45 41.2 °F 37.6 °F 30.21 in Calm     87 % 0.00 in
01:49 41.0 °F 37.7 °F 30.21 in Calm     88 % 0.00 in
01:51 41.0 °F 37.7 °F 30.21 in Calm   0.1 mph 88 % 0.00 in
01:56 40.9 °F 37.6 °F 30.20 in Calm     88 % 0.00 in
01:58 40.8 °F 37.5 °F 30.20 in Calm     88 % 0.00 in
01:59 40.8 °F 37.5 °F 30.20 in Calm     88 % 0.00 in
02:03 40.6 °F 37.3 °F 30.20 in Calm     88 % 0.00 in
02:05 40.5 °F 37.2 °F 30.20 in Calm     88 % 0.00 in
02:10 40.4 °F 37.4 °F 30.20 in Calm     89 % 0.00 in
02:14 40.2 °F 37.2 °F 30.21 in Calm     89 % 0.00 in
02:15 40.0 °F 36.7 °F 30.21 in Calm     88 % 0.00 in
02:20 39.7 °F 36.7 °F 30.21 in Calm     89 % 0.00 in
02:22 39.6 °F 36.6 °F 30.21 in Calm     89 % 0.00 in
02:27 39.0 °F 35.7 °F 30.21 in Calm     88 % 0.00 in
02:32 38.4 °F 35.4 °F 30.21 in Calm     89 % 0.00 in
02:35 38.3 °F 35.3 °F 30.21 in Calm     89 % 0.00 in
02:40 38.2 °F 35.5 °F 30.21 in Calm     90 % 0.00 in
02:42 38.0 °F 35.0 °F 30.21 in Calm     89 % 0.00 in
02:46 37.6 °F 34.7 °F 30.21 in Calm     89 % 0.00 in
02:48 37.6 °F 34.9 °F 30.21 in Calm     90 % 0.00 in
02:53 37.5 °F 34.8 °F 30.21 in Calm     90 % 0.00 in
02:54 37.5 °F 34.8 °F 30.21 in Calm     90 % 0.00 in
02:57 37.5 °F 35.1 °F 30.21 in Calm     91 % 0.00 in
02:59 37.4 °F 35.0 °F 30.21 in Calm     91 % 0.00 in
03:05 37.3 °F 34.9 °F 30.21 in Calm     91 % 0.00 in
03:06 37.1 °F 34.4 °F 30.21 in Calm     90 % 0.00 in
03:10 36.9 °F 34.5 °F 30.21 in Calm     91 % 0.00 in
03:15 37.1 °F 35.0 °F 30.20 in Calm     92 % 0.00 in
03:17 37.1 °F 35.0 °F 30.20 in Calm     92 % 0.00 in
03:22 37.2 °F 35.1 °F 30.20 in Calm     92 % 0.00 in
03:23 37.2 °F 35.1 °F 30.20 in Calm     92 % 0.00 in
03:24 37.2 °F 35.1 °F 30.20 in Calm     92 % 0.00 in
03:29 37.2 °F 35.1 °F 30.20 in Calm     92 % 0.00 in
03:31 37.2 °F 35.1 °F 30.20 in Calm     92 % 0.00 in
03:34 37.1 °F 35.0 °F 30.20 in Calm     92 % 0.00 in
03:36 37.0 °F 34.9 °F 30.21 in Calm     92 % 0.00 in
03:41 37.0 °F 34.9 °F 30.21 in Calm     92 % 0.00 in
03:42 37.1 °F 35.0 °F 30.21 in Calm     92 % 0.00 in
03:47 37.0 °F 34.9 °F 30.21 in Calm     92 % 0.00 in
03:48 37.0 °F 34.6 °F 30.21 in Calm     91 % 0.00 in
03:50 36.9 °F 34.5 °F 30.21 in Calm     91 % 0.00 in
03:53 36.7 °F 34.3 °F 30.21 in Calm     91 % 0.00 in
03:56 36.5 °F 34.1 °F 30.21 in Calm     91 % 0.00 in
04:01 36.4 °F 34.0 °F 30.20 in Calm     91 % 0.00 in
04:04 36.3 °F 34.2 °F 30.21 in Calm     92 % 0.00 in
04:07 36.3 °F 34.2 °F 30.21 in Calm     92 % 0.00 in
04:09 36.3 °F 34.2 °F 30.21 in Calm     92 % 0.00 in
04:15 36.3 °F 34.2 °F 30.21 in Calm     92 % 0.00 in
04:17 36.3 °F 34.2 °F 30.21 in Calm     92 % 0.00 in
04:21 36.3 °F 34.2 °F 30.21 in Calm     92 % 0.00 in
04:23 36.3 °F 34.2 °F 30.21 in Calm     92 % 0.00 in
04:26 36.3 °F 34.2 °F 30.22 in Calm     92 % 0.00 in
04:29 36.3 °F 34.2 °F 30.22 in Calm     92 % 0.00 in
04:34 36.3 °F 34.2 °F 30.22 in Calm     92 % 0.00 in
04:39 36.6 °F 34.8 °F 30.21 in Calm     93 % 0.00 in
04:41 36.7 °F 34.9 °F 30.22 in Calm     93 % 0.00 in
04:46 36.7 °F 34.9 °F 30.22 in Calm     93 % 0.00 in
04:47 36.7 °F 34.9 °F 30.22 in Calm     93 % 0.00 in
04:52 36.9 °F 35.1 °F 30.22 in Calm     93 % 0.00 in
04:54 37.2 °F 35.4 °F 30.22 in Calm     93 % 0.00 in
04:59 37.3 °F 35.5 °F 30.22 in Calm     93 % 0.00 in
05:04 37.4 °F 35.6 °F 30.23 in Calm     93 % 0.00 in
05:08 37.3 °F 35.5 °F 30.23 in Calm     93 % 0.00 in
05:13 37.2 °F 35.4 °F 30.23 in Calm     93 % 0.00 in
05:18 37.1 °F 35.3 °F 30.23 in Calm     93 % 0.00 in
05:19 37.0 °F 35.2 °F 30.23 in Calm     93 % 0.00 in
05:24 36.6 °F 34.5 °F 30.23 in Calm     92 % 0.00 in
05:29 36.1 °F 33.7 °F 30.23 in Calm     91 % 0.00 in
05:30 36.1 °F 33.7 °F 30.23 in Calm     91 % 0.00 in
05:33 35.9 °F 33.8 °F 30.23 in Calm     92 % 0.00 in
05:38 35.8 °F 33.7 °F 30.23 in Calm     92 % 0.00 in
05:41 35.7 °F 33.6 °F 30.23 in Calm     92 % 0.00 in
05:44 35.6 °F 33.5 °F 30.23 in Calm     92 % 0.00 in
05:49 35.6 °F 33.8 °F 30.23 in Calm     93 % 0.00 in
05:50 35.6 °F 33.8 °F 30.23 in Calm     93 % 0.00 in
05:55 35.6 °F 33.8 °F 30.23 in Calm     93 % 0.00 in
06:00 35.6 °F 33.8 °F 30.24 in Calm     93 % 0.00 in
06:01 35.6 °F 33.8 °F 30.24 in Calm     93 % 0.00 in
06:06 35.6 °F 33.8 °F 30.24 in Calm     93 % 0.00 in
06:11 35.6 °F 33.8 °F 30.24 in Calm     93 % 0.00 in
06:12 35.6 °F 33.8 °F 30.24 in Calm     93 % 0.00 in
06:17 35.6 °F 33.8 °F 30.24 in Calm     93 % 0.00 in
06:22 35.4 °F 33.6 °F 30.24 in Calm     93 % 0.00 in
06:24 35.3 °F 33.5 °F 30.24 in Calm     93 % 0.00 in
06:29 35.2 °F 33.4 °F 30.25 in Calm     93 % 0.00 in
06:34 35.2 °F 33.4 °F 30.24 in Calm     93 % 0.00 in
06:39 35.3 °F 33.7 °F 30.25 in Calm     94 % 0.00 in
06:44 35.7 °F 34.1 °F 30.25 in Calm     94 % 0.00 in
06:46 35.7 °F 34.1 °F 30.25 in Calm     94 % 0.00 in
06:51 35.6 °F 34.0 °F 30.25 in Calm     94 % 0.00 in
06:52 35.5 °F 33.7 °F 30.25 in Calm     93 % 0.00 in
06:56 35.2 °F 33.4 °F 30.25 in Calm     93 % 0.00 in
06:58 35.1 °F 33.3 °F 30.25 in Calm     93 % 0.00 in
07:03 34.9 °F 33.1 °F 30.25 in Calm     93 % 0.00 in
07:05 35.0 °F 33.2 °F 30.25 in Calm     93 % 0.00 in
07:10 35.0 °F 33.2 °F 30.26 in Calm     93 % 0.00 in
07:11 35.0 °F 33.2 °F 30.26 in Calm     93 % 0.00 in
07:16 34.9 °F 33.1 °F 30.25 in NNE 1.2 mph 1.2 mph 93 % 0.00 in
07:17 34.9 °F 33.1 °F 30.25 in NNE 1.2 mph 1.2 mph 93 % 0.00 in
07:22 35.1 °F 33.3 °F 30.25 in Calm     93 % 0.00 in
07:26 35.3 °F 33.5 °F 30.26 in Calm     93 % 0.00 in
07:29 35.4 °F 33.6 °F 30.26 in Calm     93 % 0.00 in
07:34 35.5 °F 33.7 °F 30.26 in Calm     93 % 0.00 in
07:38 35.6 °F 33.8 °F 30.26 in Calm     93 % 0.00 in
07:40 35.7 °F 33.9 °F 30.27 in Calm     93 % 0.00 in
07:45 35.7 °F 33.6 °F 30.27 in Calm     92 % 0.00 in
07:50 35.7 °F 33.6 °F 30.26 in Calm     92 % 0.00 in
07:55 36.1 °F 34.3 °F 30.26 in Calm     93 % 0.00 in
07:58 36.3 °F 34.5 °F 30.26 in Calm     93 % 0.00 in
07:59 36.4 °F 34.6 °F 30.26 in Calm     93 % 0.00 in
08:03 37.2 °F 35.4 °F 30.26 in Calm     93 % 0.00 in
08:04 37.2 °F 35.4 °F 30.26 in Calm     93 % 0.00 in
08:09 38.5 °F 36.9 °F 30.27 in Calm     94 % 0.00 in
08:10 38.7 °F 36.9 °F 30.27 in Calm     93 % 0.00 in
08:15 39.7 °F 37.6 °F 30.26 in Calm     92 % 0.00 in
08:20 40.1 °F 37.7 °F 30.26 in Calm     91 % 0.00 in
08:21 40.2 °F 37.8 °F 30.26 in Calm     91 % 0.00 in
08:27 40.3 °F 37.6 °F 30.25 in Calm     90 % 0.00 in
08:32 40.8 °F 38.1 °F 30.26 in NNE 1.2 mph 1.2 mph 90 % 0.00 in
08:36 41.6 °F 38.9 °F 30.26 in NNE 1.2 mph 1.2 mph 90 % 0.00 in
08:38 42.0 °F 39.3 °F 30.27 in South 1.2 mph   90 % 0.00 in
08:43 42.9 °F 39.6 °F 30.27 in SSE 1.2 mph   88 % 0.00 in
08:45 43.1 °F 39.8 °F 30.27 in Calm     88 % 0.00 in
08:50 43.6 °F 39.4 °F 30.26 in South 1.2 mph 1.2 mph 85 % 0.00 in
08:51 43.6 °F 39.4 °F 30.26 in South 1.2 mph 1.2 mph 85 % 0.00 in
08:54 43.8 °F 39.3 °F 30.26 in SSE 1.2 mph 1.2 mph 84 % 0.00 in
08:59 43.9 °F 39.1 °F 30.27 in Calm     83 % 0.00 in
09:03 43.9 °F 38.8 °F 30.27 in Calm     82 % 0.00 in
09:04 43.9 °F 38.8 °F 30.27 in Calm   0.1 mph 82 % 0.00 in
09:09 43.8 °F 38.3 °F 30.27 in SSE 3.5 mph 3.5 mph 81 % 0.00 in
09:10 43.8 °F 38.3 °F 30.27 in SSE 2.3 mph   81 % 0.00 in
09:11 43.7 °F 38.6 °F 30.28 in South 1.2 mph 1.2 mph 82 % 0.00 in
09:16 43.9 °F 38.8 °F 30.28 in Calm     82 % 0.00 in
09:19 43.8 °F 38.3 °F 30.28 in ESE 1.2 mph   81 % 0.00 in
09:24 43.8 °F 38.3 °F 30.28 in SSE 2.3 mph 2.3 mph 81 % 0.00 in
09:25 43.8 °F 38.3 °F 30.28 in SE 1.2 mph 1.2 mph 81 % 0.00 in
09:30 43.9 °F 38.4 °F 30.27 in ESE 2.3 mph 2.3 mph 81 % 0.00 in
09:31 43.9 °F 38.4 °F 30.27 in SSE 3.5 mph 3.5 mph 81 % 0.00 in
09:36 44.1 °F 39.0 °F 30.27 in SE 2.3 mph 2.3 mph 82 % 0.00 in
09:41 44.6 °F 39.4 °F 30.28 in ESE 1.2 mph 1.2 mph 82 % 0.00 in
09:46 45.0 °F 39.2 °F 30.28 in South 3.5 mph 3.5 mph 80 % 0.00 in
09:47 45.1 °F 39.3 °F 30.28 in East 2.3 mph 2.3 mph 80 % 0.00 in
09:51 45.3 °F 39.5 °F 30.28 in NW 1.2 mph   80 % 0.00 in
09:52 45.4 °F 39.6 °F 30.28 in SSE 1.0 mph 1.0 mph 80 % 0.00 in
09:57 45.8 °F 40.0 °F 30.28 in South 2.3 mph 2.3 mph 80 % 0.00 in
09:58 45.9 °F 40.1 °F 30.28 in SSE 2.3 mph 2.3 mph 80 % 0.00 in
10:03 46.2 °F 40.0 °F 30.28 in Calm     79 % 0.00 in
10:05 46.3 °F 39.8 °F 30.28 in SW 1.2 mph 1.2 mph 78 % 0.00 in
10:10 46.5 °F 40.0 °F 30.28 in Calm     78 % 0.00 in
10:11 46.6 °F 40.1 °F 30.28 in NNW 1.2 mph 1.2 mph 78 % 0.00 in
10:16 47.0 °F 40.2 °F 30.28 in South 1.2 mph   77 % 0.00 in
10:17 47.1 °F 40.3 °F 30.28 in South 2.3 mph 2.3 mph 77 % 0.00 in
10:18 47.2 °F 40.7 °F 30.28 in SSE 2.3 mph 2.3 mph 78 % 0.00 in
10:23 47.8 °F 40.6 °F 30.29 in SSW 2.3 mph 2.3 mph 76 % 0.00 in
10:27 48.4 °F 41.2 °F 30.29 in Calm     76 % 0.00 in
10:29 48.7 °F 41.1 °F 30.29 in NNW 2.3 mph 2.3 mph 75 % 0.00 in
10:34 48.8 °F 41.2 °F 30.28 in SE 1.2 mph 1.2 mph 75 % 0.00 in
10:37 49.0 °F 41.1 °F 30.28 in SSE 1.2 mph 1.2 mph 74 % 0.00 in
10:42 49.0 °F 40.7 °F 30.28 in Calm     73 % 0.00 in
10:45 49.1 °F 41.5 °F 30.28 in Calm     75 % 0.00 in
10:47 49.3 °F 41.4 °F 30.28 in SSE 3.5 mph 3.5 mph 74 % 0.00 in
10:52 49.9 °F 41.6 °F 30.28 in SSE 1.2 mph 1.2 mph 73 % 0.00 in
10:53 49.9 °F 41.6 °F 30.28 in SSE 1.2 mph   73 % 0.00 in
10:58 50.4 °F 42.1 °F 30.28 in ESE 3.5 mph 3.5 mph 73 % 0.00 in
11:03 50.8 °F 42.1 °F 30.27 in SSE 1.2 mph   72 % 0.00 in
11:04 50.9 °F 42.2 °F 30.27 in Calm   0.1 mph 72 % 0.00 in
11:09 51.3 °F 42.6 °F 30.27 in South 1.2 mph 1.2 mph 72 % 0.00 in
11:14 51.7 °F 42.6 °F 30.26 in SSE 1.2 mph 1.2 mph 71 % 0.00 in
11:15 51.8 °F 41.9 °F 30.27 in WNW 1.2 mph 1.2 mph 69 % 0.00 in
11:20 51.8 °F 42.3 °F 30.26 in ESE 1.2 mph 1.2 mph 70 % 0.00 in
11:25 52.2 °F 42.3 °F 30.26 in North 1.2 mph 1.2 mph 69 % 0.00 in
11:30 52.4 °F 42.1 °F 30.26 in NE 3.5 mph 3.5 mph 68 % 0.00 in
11:35 52.3 °F 42.0 °F 30.25 in North 2.3 mph 2.3 mph 68 % 0.00 in
11:36 52.2 °F 42.3 °F 30.25 in SSE 1.2 mph 1.2 mph 69 % 0.00 in
11:41 52.6 °F 42.7 °F 30.25 in SSE 2.3 mph   69 % 0.00 in
11:44 52.8 °F 42.5 °F 30.25 in SE 2.0 mph 2.0 mph 68 % 0.00 in
11:47 52.9 °F 42.2 °F 30.24 in Calm   0.1 mph 67 % 0.00 in
11:52 53.1 °F 42.4 °F 30.23 in Calm     67 % 0.00 in
11:57 53.5 °F 42.4 °F 30.23 in SSE 2.3 mph 2.3 mph 66 % 0.00 in
12:02 53.6 °F 42.1 °F 30.23 in NNW 3.5 mph 3.5 mph 65 % 0.00 in
12:04 53.7 °F 42.2 °F 30.23 in NNW 2.0 mph 2.0 mph 65 % 0.00 in
12:06 53.6 °F 42.1 °F 30.22 in NW 2.3 mph 2.3 mph 65 % 0.00 in
12:11 53.4 °F 41.9 °F 30.22 in NNW 3.0 mph 3.0 mph 65 % 0.00 in
12:13 53.4 °F 41.5 °F 30.22 in NNW 2.3 mph 2.3 mph 64 % 0.00 in
12:18 53.7 °F 41.8 °F 30.22 in NW 1.2 mph 1.2 mph 64 % 0.00 in
12:21 53.7 °F 42.2 °F 30.21 in Calm     65 % 0.00 in
12:22 53.7 °F 42.2 °F 30.21 in Calm   0.1 mph 65 % 0.00 in
12:27 53.9 °F 42.0 °F 30.21 in NW 1.2 mph 1.2 mph 64 % 0.00 in
12:32 54.0 °F 42.5 °F 30.21 in South 2.3 mph 2.3 mph 65 % 0.00 in
12:34 54.2 °F 42.3 °F 30.21 in SE 1.0 mph 1.0 mph 64 % 0.00 in
12:39 54.5 °F 42.2 °F 30.21 in NW 2.3 mph 2.3 mph 63 % 0.00 in
12:40 54.4 °F 42.1 °F 30.21 in WSW 2.3 mph 2.3 mph 63 % 0.00 in
12:45 54.6 °F 42.7 °F 30.20 in Calm     64 % 0.00 in
12:46 54.6 °F 42.7 °F 30.20 in Calm     64 % 0.00 in
12:51 54.9 °F 42.5 °F 30.20 in Calm     63 % 0.00 in
12:56 55.4 °F 42.6 °F 30.20 in North 1.2 mph 1.2 mph 62 % 0.00 in
12:58 55.5 °F 41.8 °F 30.20 in North 2.3 mph   60 % 0.00 in
13:01 55.6 °F 42.4 °F 30.20 in NNW 2.3 mph 2.3 mph 61 % 0.00 in
13:03 55.7 °F 42.0 °F 30.20 in NW 1.2 mph 1.2 mph 60 % 0.00 in
13:08 55.5 °F 42.3 °F 30.20 in Calm     61 % 0.00 in
13:09 55.6 °F 41.9 °F 30.20 in SSE 1.2 mph 1.2 mph 60 % 0.00 in
13:10 55.6 °F 41.9 °F 30.19 in SSE 2.3 mph 2.3 mph 60 % 0.00 in
13:15 56.1 °F 42.8 °F 30.19 in SSE 2.3 mph 2.3 mph 61 % 0.00 in
13:16 56.3 °F 42.6 °F 30.20 in SE 3.5 mph 3.5 mph 60 % 0.00 in
13:17 56.3 °F 42.6 °F 30.20 in SSE 2.3 mph 2.3 mph 60 % 0.00 in
13:22 56.6 °F 42.9 °F 30.20 in SSE 1.2 mph   60 % 0.00 in
13:24 56.7 °F 43.0 °F 30.20 in NNW 1.2 mph 1.2 mph 60 % 0.00 in
13:29 56.6 °F 42.4 °F 30.20 in NW 1.2 mph 1.2 mph 59 % 0.00 in
13:31 56.7 °F 43.0 °F 30.20 in South 2.3 mph 2.3 mph 60 % 0.00 in
13:36 57.2 °F 42.1 °F 30.19 in WNW 1.2 mph 1.2 mph 57 % 0.00 in
13:37 57.2 °F 42.1 °F 30.19 in NW 2.3 mph 2.3 mph 57 % 0.00 in
13:42 56.8 °F 41.7 °F 30.18 in Calm     57 % 0.00 in
13:47 56.8 °F 41.3 °F 30.19 in NE 1.2 mph 1.2 mph 56 % 0.00 in
13:53 56.7 °F 41.2 °F 30.18 in NW 1.2 mph   56 % 0.00 in
13:54 56.6 °F 41.1 °F 30.18 in Calm     56 % 0.00 in
13:59 56.8 °F 42.2 °F 30.17 in Calm     58 % 0.00 in
14:00 57.0 °F 41.9 °F 30.17 in Calm     57 % 0.00 in
14:05 57.4 °F 41.8 °F 30.17 in NW 1.0 mph 1.0 mph 56 % 0.00 in
14:10 57.5 °F 41.4 °F 30.17 in NE 1.2 mph   55 % 0.00 in
14:11 57.5 °F 41.4 °F 30.17 in NE 1.0 mph   55 % 0.00 in
14:16 57.5 °F 41.9 °F 30.17 in SE 1.2 mph   56 % 0.00 in
14:20 57.6 °F 41.5 °F 30.17 in SE 1.2 mph   55 % 0.00 in
14:23 57.5 °F 41.4 °F 30.17 in Calm     55 % 0.00 in
14:25 57.4 °F 41.4 °F 30.16 in Calm   0.1 mph 55 % 0.00 in
14:29 57.3 °F 40.8 °F 30.16 in SE 1.2 mph   54 % 0.00 in
14:32 57.3 °F 41.7 °F 30.16 in SE 1.2 mph 1.2 mph 56 % 0.00 in
14:35 57.2 °F 41.6 °F 30.16 in Calm     56 % 0.00 in
14:40 57.1 °F 41.5 °F 30.16 in Calm     56 % 0.00 in
14:42 57.0 °F 41.4 °F 30.17 in Calm     56 % 0.00 in
14:43 57.0 °F 41.9 °F 30.17 in Calm     57 % 0.00 in
14:48 56.9 °F 41.4 °F 30.17 in SSE 1.2 mph   56 % 0.00 in
14:53 56.9 °F 41.4 °F 30.16 in SE 1.2 mph   56 % 0.00 in
14:55 56.9 °F 41.4 °F 30.16 in NNW 2.0 mph 2.0 mph 56 % 0.00 in
14:58 56.8 °F 41.3 °F 30.16 in Calm     56 % 0.00 in
15:03 56.8 °F 41.3 °F 30.16 in NNW 1.2 mph   56 % 0.00 in
15:06 56.7 °F 41.2 °F 30.16 in WSW 1.2 mph 1.2 mph 56 % 0.00 in
15:09 56.6 °F 41.1 °F 30.16 in NW 1.2 mph 1.2 mph 56 % 0.00 in
15:14 56.5 °F 41.4 °F 30.16 in NNW 1.2 mph 1.2 mph 57 % 0.00 in
15:15 56.5 °F 41.4 °F 30.16 in NNW 1.2 mph   57 % 0.00 in
15:20 56.5 °F 41.4 °F 30.17 in SE 2.3 mph 2.3 mph 57 % 0.00 in
15:25 56.5 °F 41.9 °F 30.17 in SSE 1.2 mph 1.2 mph 58 % 0.00 in
15:30 56.5 °F 41.9 °F 30.17 in Calm     58 % 0.00 in
15:31 56.5 °F 41.9 °F 30.17 in Calm     58 % 0.00 in
15:36 56.4 °F 41.8 °F 30.17 in SE 1.2 mph 1.2 mph 58 % 0.00 in
15:38 56.3 °F 42.1 °F 30.17 in SE 1.2 mph 1.2 mph 59 % 0.00 in
15:43 56.3 °F 42.1 °F 30.17 in SSE 1.2 mph   59 % 0.00 in
15:48 56.2 °F 42.1 °F 30.17 in Calm     59 % 0.00 in
15:51 56.1 °F 42.0 °F 30.17 in SSE 1.2 mph 1.2 mph 59 % 0.00 in
15:53 56.1 °F 42.4 °F 30.17 in Calm     60 % 0.00 in
15:58 55.9 °F 42.2 °F 30.17 in SSE 1.2 mph 1.2 mph 60 % 0.00 in
15:59 55.9 °F 42.2 °F 30.17 in SSE 1.2 mph 1.2 mph 60 % 0.00 in
16:04 55.6 °F 42.4 °F 30.17 in SE 1.2 mph 1.2 mph 61 % 0.00 in
16:09 55.4 °F 42.2 °F 30.17 in SSE 1.2 mph 1.2 mph 61 % 0.00 in
16:14 55.1 °F 42.3 °F 30.18 in Calm   0.5 mph 62 % 0.00 in
16:15 55.1 °F 42.3 °F 30.18 in South 2.3 mph 2.3 mph 62 % 0.00 in
16:18 54.9 °F 42.5 °F 30.18 in Calm     63 % 0.00 in
16:20 54.7 °F 42.3 °F 30.17 in Calm     63 % 0.00 in
16:25 54.4 °F 42.1 °F 30.17 in Calm     63 % 0.00 in
16:26 54.3 °F 42.0 °F 30.17 in Calm     63 % 0.00 in
16:31 54.0 °F 42.5 °F 30.17 in Calm     65 % 0.00 in
16:34 53.8 °F 42.3 °F 30.17 in Calm     65 % 0.00 in
16:39 53.5 °F 42.4 °F 30.17 in Calm     66 % 0.00 in
16:41 53.3 °F 42.2 °F 30.17 in Calm     66 % 0.00 in
16:42 53.3 °F 42.2 °F 30.17 in Calm     66 % 0.00 in
16:47 52.8 °F 41.7 °F 30.17 in Calm     66 % 0.00 in
16:49 52.7 °F 41.7 °F 30.17 in Calm     66 % 0.00 in
16:53 52.3 °F 41.7 °F 30.17 in Calm     67 % 0.00 in
16:58 52.0 °F 41.8 °F 30.18 in Calm     68 % 0.00 in
16:59 51.9 °F 41.7 °F 30.18 in Calm     68 % 0.00 in
17:00 51.9 °F 41.7 °F 30.18 in Calm     68 % 0.00 in
17:05 51.5 °F 41.7 °F 30.18 in Calm     69 % 0.00 in
17:06 51.4 °F 41.6 °F 30.18 in Calm     69 % 0.00 in
17:11 50.9 °F 41.5 °F 30.17 in Calm     70 % 0.00 in
17:15 50.7 °F 41.6 °F 30.17 in Calm     71 % 0.00 in
17:20 50.4 °F 41.7 °F 30.17 in Calm     72 % 0.00 in
17:21 50.3 °F 41.6 °F 30.17 in Calm     72 % 0.00 in
17:26 50.1 °F 41.8 °F 30.17 in Calm     73 % 0.00 in
17:30 49.9 °F 41.6 °F 30.17 in Calm     73 % 0.00 in
17:34 49.6 °F 41.7 °F 30.18 in Calm     74 % 0.00 in
17:39 49.3 °F 41.7 °F 30.17 in Calm     75 % 0.00 in
17:41 49.3 °F 41.7 °F 30.18 in Calm     75 % 0.00 in
17:46 49.1 °F 41.5 °F 30.18 in Calm     75 % 0.00 in
17:49 49.1 °F 41.5 °F 30.18 in Calm     75 % 0.00 in
17:51 49.1 °F 41.5 °F 30.18 in Calm     75 % 0.00 in
17:56 48.9 °F 41.7 °F 30.17 in Calm     76 % 0.00 in
17:58 48.9 °F 41.7 °F 30.17 in Calm     76 % 0.00 in
18:01 48.8 °F 41.6 °F 30.17 in Calm     76 % 0.00 in
18:06 48.7 °F 41.5 °F 30.17 in Calm     76 % 0.00 in
18:08 48.7 °F 41.5 °F 30.17 in Calm     76 % 0.00 in
18:13 48.5 °F 41.3 °F 30.17 in Calm     76 % 0.00 in
18:15 48.5 °F 41.3 °F 30.17 in Calm     76 % 0.00 in
18:20 48.3 °F 41.1 °F 30.17 in Calm     76 % 0.00 in
18:21 48.2 °F 41.3 °F 30.18 in Calm     77 % 0.00 in
18:26 48.0 °F 41.1 °F 30.17 in Calm     77 % 0.00 in
18:28 47.9 °F 41.0 °F 30.17 in Calm     77 % 0.00 in
18:33 48.0 °F 41.5 °F 30.18 in Calm     78 % 0.00 in
18:34 48.0 °F 41.1 °F 30.18 in Calm     77 % 0.00 in
18:35 48.0 °F 41.1 °F 30.18 in Calm     77 % 0.00 in
18:41 47.8 °F 41.3 °F 30.18 in Calm     78 % 0.00 in
18:42 47.6 °F 41.1 °F 30.18 in Calm     78 % 0.00 in
18:43 47.6 °F 41.1 °F 30.18 in Calm     78 % 0.00 in
18:48 47.2 °F 41.0 °F 30.18 in Calm     79 % 0.00 in
18:49 47.1 °F 40.9 °F 30.19 in Calm     79 % 0.00 in
18:54 46.9 °F 41.1 °F 30.18 in Calm     80 % 0.00 in
18:58 46.7 °F 40.9 °F 30.18 in Calm     80 % 0.00 in
19:03 46.6 °F 41.1 °F 30.19 in Calm     81 % 0.00 in
19:04 46.5 °F 40.7 °F 30.18 in Calm     80 % 0.00 in
19:08 46.4 °F 40.9 °F 30.19 in Calm     81 % 0.00 in
19:13 46.2 °F 40.7 °F 30.19 in Calm     81 % 0.00 in
19:18 46.1 °F 40.9 °F 30.19 in Calm     82 % 0.00 in
19:20 46.1 °F 40.9 °F 30.19 in Calm     82 % 0.00 in
19:25 46.1 °F 40.9 °F 30.19 in Calm     82 % 0.00 in
19:30 46.0 °F 40.8 °F 30.19 in Calm     82 % 0.00 in
19:32 46.0 °F 40.8 °F 30.19 in Calm     82 % 0.00 in
19:35 45.9 °F 40.7 °F 30.19 in Calm     82 % 0.00 in
19:37 45.7 °F 40.5 °F 30.19 in Calm     82 % 0.00 in
19:42 45.5 °F 40.3 °F 30.20 in Calm     82 % 0.00 in
19:45 45.4 °F 40.5 °F 30.20 in Calm     83 % 0.00 in
19:49 45.5 °F 40.6 °F 30.19 in Calm     83 % 0.00 in
19:50 45.6 °F 40.7 °F 30.19 in Calm     83 % 0.00 in
19:55 45.9 °F 40.7 °F 30.19 in Calm     82 % 0.00 in
20:00 45.9 °F 40.7 °F 30.19 in Calm     82 % 0.00 in
20:02 45.9 °F 40.7 °F 30.19 in Calm     82 % 0.00 in
20:05 45.8 °F 40.6 °F 30.19 in Calm     82 % 0.00 in
20:07 45.8 °F 40.6 °F 30.19 in Calm     82 % 0.00 in
20:12 45.9 °F 40.7 °F 30.19 in Calm     82 % 0.00 in
20:17 46.0 °F 40.5 °F 30.19 in Calm     81 % 0.00 in
20:22 45.7 °F 40.5 °F 30.19 in Calm     82 % 0.00 in
20:27 45.5 °F 40.3 °F 30.19 in Calm     82 % 0.00 in
20:28 45.4 °F 40.2 °F 30.19 in Calm     82 % 0.00 in
20:29 45.4 °F 40.2 °F 30.19 in Calm     82 % 0.00 in
20:33 45.2 °F 40.3 °F 30.19 in Calm     83 % 0.00 in
20:38 45.2 °F 40.3 °F 30.18 in Calm     83 % 0.00 in
20:40 45.2 °F 40.3 °F 30.18 in Calm     83 % 0.00 in
20:45 45.1 °F 40.2 °F 30.18 in Calm     83 % 0.00 in
20:47 45.2 °F 40.3 °F 30.18 in Calm     83 % 0.00 in
20:49 45.2 °F 40.3 °F 30.18 in Calm     83 % 0.00 in
20:53 45.1 °F 40.6 °F 30.18 in Calm     84 % 0.00 in
20:58 45.1 °F 40.6 °F 30.18 in Calm     84 % 0.00 in
21:02 45.0 °F 40.5 °F 30.18 in Calm     84 % 0.00 in
21:09 44.8 °F 40.3 °F 30.17 in Calm     84 % 0.00 in
21:14 44.5 °F 40.0 °F 30.17 in Calm     84 % 0.00 in
21:19 44.3 °F 39.8 °F 30.18 in Calm     84 % 0.00 in
21:21 44.2 °F 39.7 °F 30.18 in Calm     84 % 0.00 in
21:23 44.1 °F 39.6 °F 30.17 in Calm     84 % 0.00 in
21:28 43.9 °F 39.7 °F 30.18 in Calm     85 % 0.00 in
21:29 43.9 °F 39.7 °F 30.18 in Calm     85 % 0.00 in
21:34 44.0 °F 39.8 °F 30.17 in Calm     85 % 0.00 in
21:38 44.0 °F 39.8 °F 30.18 in Calm     85 % 0.00 in
21:43 44.1 °F 39.9 °F 30.17 in Calm     85 % 0.00 in
21:46 44.2 °F 40.0 °F 30.17 in Calm     85 % 0.00 in
21:51 44.1 °F 39.9 °F 30.18 in Calm     85 % 0.00 in
21:55 44.0 °F 39.8 °F 30.18 in Calm     85 % 0.00 in
21:58 43.9 °F 39.7 °F 30.19 in Calm     85 % 0.00 in
22:02 43.7 °F 39.8 °F 30.19 in Calm     86 % 0.00 in
22:06 43.5 °F 39.6 °F 30.19 in Calm     86 % 0.00 in
22:08 43.5 °F 39.6 °F 30.19 in Calm     86 % 0.00 in
22:13 43.4 °F 39.8 °F 30.19 in Calm     87 % 0.00 in
22:17 43.3 °F 39.7 °F 30.20 in Calm     87 % 0.00 in
22:19 43.2 °F 39.6 °F 30.20 in Calm     87 % 0.00 in
22:24 43.1 °F 39.5 °F 30.20 in Calm     87 % 0.00 in
22:29 43.0 °F 39.4 °F 30.20 in Calm     87 % 0.00 in
22:30 43.0 °F 39.4 °F 30.20 in Calm     87 % 0.00 in
22:34 43.1 °F 39.5 °F 30.20 in Calm     87 % 0.00 in
22:36 43.1 °F 39.5 °F 30.20 in Calm     87 % 0.00 in
22:41 43.1 °F 39.5 °F 30.20 in Calm     87 % 0.00 in
22:45 43.1 °F 39.5 °F 30.20 in Calm     87 % 0.00 in
22:46 43.1 °F 39.5 °F 30.20 in Calm     87 % 0.00 in
22:51 43.0 °F 39.4 °F 30.20 in Calm     87 % 0.00 in
22:54 42.9 °F 39.3 °F 30.20 in Calm     87 % 0.00 in
22:56 42.8 °F 39.2 °F 30.20 in Calm     87 % 0.00 in
23:01 42.7 °F 39.1 °F 30.20 in Calm     87 % 0.00 in
23:02 42.7 °F 39.1 °F 30.21 in Calm     87 % 0.00 in
23:07 42.7 °F 39.1 °F 30.21 in Calm     87 % 0.00 in
23:10 42.6 °F 39.0 °F 30.22 in Calm     87 % 0.00 in
23:12 42.5 °F 38.9 °F 30.21 in Calm     87 % 0.00 in
23:17 42.4 °F 39.1 °F 30.22 in Calm     88 % 0.00 in
23:22 42.2 °F 38.9 °F 30.22 in Calm     88 % 0.00 in
23:27 42.2 °F 38.9 °F 30.22 in Calm     88 % 0.00 in
23:28 42.2 °F 38.9 °F 30.22 in Calm     88 % 0.00 in
23:31 42.4 °F 39.1 °F 30.22 in Calm     88 % 0.00 in
23:34 42.6 °F 39.0 °F 30.21 in Calm     87 % 0.00 in
23:39 42.9 °F 39.3 °F 30.21 in Calm     87 % 0.00 in
23:40 43.0 °F 39.4 °F 30.21 in Calm     87 % 0.00 in
23:45 43.3 °F 39.1 °F 30.21 in Calm   0.1 mph 85 % 0.00 in
23:50 43.5 °F 39.3 °F 30.21 in Calm     85 % 0.00 in
23:55 43.3 °F 39.1 °F 30.20 in Calm     85 % 0.00 in
23:56 43.3 °F 39.1 °F 30.20 in Calm     85 % 0.00 in
Park Place, Exeter, Tulare County, California, USA
Compliments of Weather Underground - 3.5 mb